createdAt,value
2018-01-13T00:00:24.125Z,52.29
2018-01-13T00:01:33.012Z,52.29
2018-01-13T00:02:41.895Z,52.2
2018-01-13T00:03:50.784Z,52.11
2018-01-13T00:04:59.761Z,51.73
2018-01-13T00:06:08.645Z,52.2
2018-01-13T00:07:17.530Z,52.2
2018-01-13T00:08:26.415Z,52.11
2018-01-13T00:09:35.301Z,52.39
2018-01-13T00:10:44.237Z,52.48
2018-01-13T00:11:53.402Z,52.48
2018-01-13T00:13:02.284Z,52.39
2018-01-13T00:14:11.167Z,52.39
2018-01-13T00:15:20.051Z,52.39
2018-01-13T00:16:29.086Z,52.39
2018-01-13T00:17:37.971Z,52.48
2018-01-13T00:18:46.856Z,52.39
2018-01-13T00:19:55.741Z,52.58
2018-01-13T00:21:04.626Z,52.48
2018-01-13T00:22:13.708Z,52.39
2018-01-13T00:23:22.592Z,52.11
2018-01-13T00:24:31.473Z,52.29
2018-01-13T00:25:40.362Z,52.2
2018-01-13T00:26:49.523Z,52.01
2018-01-13T00:27:58.507Z,52.01
2018-01-13T00:29:07.391Z,52.01
2018-01-13T00:30:16.276Z,52.2
2018-01-13T00:31:25.160Z,52.11
2018-01-13T00:32:34.045Z,52.11
2018-01-13T00:33:43.080Z,52.01
2018-01-13T00:34:52.242Z,51.92
2018-01-13T00:36:01.129Z,51.73
2018-01-13T00:37:10.012Z,51.64
2018-01-13T00:38:18.896Z,51.92
2018-01-13T00:39:27.831Z,51.92
2018-01-13T00:40:36.712Z,51.92
2018-01-13T00:41:45.595Z,52.29
2018-01-13T00:42:54.480Z,51.92
2018-01-13T00:44:03.646Z,52.01
2018-01-13T00:45:12.826Z,52.2
2018-01-13T00:46:21.711Z,52.11
2018-01-13T00:47:30.596Z,52.68
2018-01-13T00:48:39.478Z,52.48
2018-01-13T00:49:48.364Z,52.11
2018-01-13T00:50:57.406Z,52.11
2018-01-13T00:52:06.283Z,52.11
2018-01-13T00:53:15.166Z,51.92
2018-01-13T00:54:24.048Z,51.92
2018-01-13T00:55:32.932Z,52.01
2018-01-13T00:56:41.965Z,51.73
2018-01-13T00:57:51.134Z,51.82
2018-01-13T00:59:00.025Z,52.11
2018-01-13T01:00:08.906Z,52.01
2018-01-13T01:01:17.792Z,51.73
2018-01-13T01:02:26.981Z,51.92
2018-01-13T01:03:35.870Z,51.92
2018-01-13T01:04:44.755Z,51.73
2018-01-13T01:05:53.638Z,51.54
2018-01-13T01:07:02.524Z,51.92
2018-01-13T01:08:11.686Z,51.73
2018-01-13T01:09:20.570Z,51.64
2018-01-13T01:10:29.461Z,51.73
2018-01-13T01:11:38.341Z,51.54
2018-01-13T01:12:47.226Z,51.82
2018-01-13T01:13:56.262Z,52.01
2018-01-13T01:15:05.154Z,51.82
2018-01-13T01:16:14.314Z,51.54
2018-01-13T01:17:23.200Z,52.01
2018-01-13T01:18:32.081Z,51.82
2018-01-13T01:19:41.016Z,51.64
2018-01-13T01:20:49.901Z,51.64
2018-01-13T01:21:58.785Z,51.82
2018-01-13T01:23:07.667Z,51.92
2018-01-13T01:24:16.552Z,51.92
2018-01-13T01:25:25.486Z,51.64
2018-01-13T01:26:34.656Z,51.92
2018-01-13T01:27:43.539Z,51.73
2018-01-13T01:28:52.424Z,51.73
2018-01-13T01:30:01.309Z,51.64
2018-01-13T01:31:10.442Z,51.64
2018-01-13T01:32:19.328Z,51.64
2018-01-13T01:33:28.213Z,51.64
2018-01-13T01:34:37.097Z,51.82
2018-01-13T01:35:46.029Z,51.73
2018-01-13T01:36:54.912Z,51.82
2018-01-13T01:38:03.797Z,51.64
2018-01-13T01:39:12.681Z,51.92
2018-01-13T01:40:21.566Z,51.82
2018-01-13T01:41:30.452Z,51.82
2018-01-13T01:42:39.614Z,52.01
2018-01-13T01:43:48.499Z,51.92
2018-01-13T01:44:57.383Z,51.82
2018-01-13T01:46:06.272Z,51.92
2018-01-13T01:47:15.151Z,51.73
2018-01-13T01:48:24.185Z,52.11
2018-01-13T01:49:33.067Z,51.92
2018-01-13T01:50:41.952Z,51.82
2018-01-13T01:51:50.835Z,51.64
2018-01-13T01:52:59.716Z,51.64
2018-01-13T01:54:08.799Z,51.54
2018-01-13T01:55:17.684Z,51.64
2018-01-13T01:56:26.844Z,51.73
2018-01-13T01:57:36.007Z,51.54
2018-01-13T01:58:44.890Z,52.11
2018-01-13T01:59:53.824Z,51.45
2018-01-13T02:01:02.703Z,52.11
2018-01-13T02:02:11.864Z,51.73
2018-01-13T02:03:20.744Z,51.64
2018-01-13T02:04:29.628Z,51.64
2018-01-13T02:05:38.615Z,51.82
2018-01-13T02:06:47.490Z,51.92
2018-01-13T02:07:56.375Z,51.64
2018-01-13T02:09:05.308Z,51.54
2018-01-13T02:10:14.189Z,51.54
2018-01-13T02:11:23.171Z,51.64
2018-01-13T02:12:32.053Z,51.73
2018-01-13T02:13:40.938Z,51.64
2018-01-13T02:14:49.821Z,51.73
2018-01-13T02:15:58.709Z,51.54
2018-01-13T02:17:08.018Z,51.45
2018-01-13T02:18:16.905Z,51.61
2018-01-13T02:19:25.791Z,51.35
2018-01-13T02:20:34.674Z,51.16
2018-01-13T02:21:43.555Z,51.45
2018-01-13T02:22:52.689Z,51.26
2018-01-13T02:24:01.613Z,51.16
2018-01-13T02:25:10.452Z,51.16
2018-01-13T02:26:19.380Z,51.35
2018-01-13T02:27:28.218Z,50.97
2018-01-13T02:28:37.252Z,51.26
2018-01-13T02:29:46.132Z,51.16
2018-01-13T02:30:55.013Z,51.45
2018-01-13T02:32:03.904Z,51.45
2018-01-13T02:33:12.780Z,51.16
2018-01-13T02:34:21.809Z,51.26
2018-01-13T02:35:30.693Z,51.26
2018-01-13T02:36:39.580Z,51.26
2018-01-13T02:37:48.465Z,51.26
2018-01-13T02:38:57.349Z,51.16
2018-01-13T02:40:06.230Z,50.78
2018-01-13T02:41:15.115Z,51.26
2018-01-13T02:42:23.999Z,50.88
2018-01-13T02:43:32.883Z,50.78
2018-01-13T02:44:41.766Z,50.88
2018-01-13T02:45:50.698Z,51.07
2018-01-13T02:46:59.860Z,50.88
2018-01-13T02:48:08.745Z,50.88
2018-01-13T02:49:17.626Z,51.16
2018-01-13T02:50:26.512Z,51.35
2018-01-13T02:51:35.776Z,51.54
2018-01-13T02:52:44.660Z,51.26
2018-01-13T02:53:53.544Z,51.26
2018-01-13T02:55:02.427Z,51.16
2018-01-13T02:56:11.310Z,51.45
2018-01-13T02:57:20.245Z,51.54
2018-01-13T02:58:29.127Z,50.88
2018-01-13T02:59:38.011Z,50.88
2018-01-13T03:00:46.894Z,51.16
2018-01-13T03:01:55.778Z,50.97
2018-01-13T03:03:04.711Z,50.88
2018-01-13T03:04:13.592Z,50.88
2018-01-13T03:05:22.473Z,50.97
2018-01-13T03:06:31.357Z,50.97
2018-01-13T03:07:40.240Z,51.07
2018-01-13T03:08:49.374Z,50.78
2018-01-13T03:09:58.256Z,51.16
2018-01-13T03:11:07.141Z,50.88
2018-01-13T03:12:16.025Z,50.97
2018-01-13T03:13:24.908Z,50.97
2018-01-13T03:14:33.890Z,50.69
2018-01-13T03:15:42.773Z,50.88
2018-01-13T03:16:51.935Z,51.16
2018-01-13T03:18:00.817Z,50.69
2018-01-13T03:19:09.699Z,51.26
2018-01-13T03:20:18.731Z,50.88
2018-01-13T03:21:27.615Z,50.69
2018-01-13T03:22:36.499Z,50.69
2018-01-13T03:23:45.382Z,50.88
2018-01-13T03:24:54.263Z,50.69
2018-01-13T03:26:03.294Z,50.88
2018-01-13T03:27:12.176Z,51.07
2018-01-13T03:28:21.059Z,50.88
2018-01-13T03:29:29.943Z,50.88
2018-01-13T03:30:38.826Z,50.88
2018-01-13T03:31:47.856Z,51.16
2018-01-13T03:32:57.022Z,50.78
2018-01-13T03:34:05.902Z,50.69
2018-01-13T03:35:14.786Z,50.78
2018-01-13T03:36:23.668Z,50.97
2018-01-13T03:37:32.699Z,50.59
2018-01-13T03:38:41.582Z,49.84
2018-01-13T03:39:50.464Z,49.93
2018-01-13T03:40:59.347Z,49.46
2018-01-13T03:42:08.230Z,49.65
2018-01-13T03:43:17.267Z,49.65
2018-01-13T03:44:26.144Z,49.74
2018-01-13T03:45:35.025Z,49.17
2018-01-13T03:46:43.909Z,49.27
2018-01-13T03:47:52.794Z,49.27
2018-01-13T03:49:01.826Z,49.27
2018-01-13T03:50:10.707Z,49.27
2018-01-13T03:51:19.587Z,49.08
2018-01-13T03:52:28.471Z,49.36
2018-01-13T03:53:37.353Z,49.08
2018-01-13T03:54:46.285Z,49.08
2018-01-13T03:55:55.170Z,49.08
2018-01-13T03:57:04.339Z,49.27
2018-01-13T03:58:13.226Z,48.41
2018-01-13T03:59:22.387Z,48.51
2018-01-13T04:00:31.420Z,48.89
2018-01-13T04:01:40.304Z,48.7
2018-01-13T04:02:49.185Z,48.6
2018-01-13T04:03:58.070Z,48.51
2018-01-13T04:05:06.957Z,48.41
2018-01-13T04:06:16.364Z,48.51
2018-01-13T04:07:25.246Z,48.51
2018-01-13T04:08:34.128Z,48.51
2018-01-13T04:09:43.012Z,48.51
2018-01-13T04:10:51.894Z,48.6
2018-01-13T04:12:01.178Z,48.22
2018-01-13T04:13:10.062Z,48.41
2018-01-13T04:14:19.223Z,48.22
2018-01-13T04:15:28.106Z,48.51
2018-01-13T04:16:36.987Z,48.6
2018-01-13T04:17:46.118Z,48.32
2018-01-13T04:18:54.999Z,48.51
2018-01-13T04:20:03.883Z,48.13
2018-01-13T04:21:13.046Z,48.13
2018-01-13T04:22:21.927Z,48.22
2018-01-13T04:23:31.109Z,48.41
2018-01-13T04:24:39.994Z,48.13
2018-01-13T04:25:48.878Z,48.13
2018-01-13T04:26:57.760Z,48.13
2018-01-13T04:28:06.641Z,47.94
2018-01-13T04:29:15.570Z,47.75
2018-01-13T04:30:24.452Z,47.85
2018-01-13T04:31:33.336Z,48.1
2018-01-13T04:32:42.219Z,47.56
2018-01-13T04:33:51.101Z,47.66
2018-01-13T04:35:00.086Z,47.47
2018-01-13T04:36:09.250Z,47.82
2018-01-13T04:37:18.133Z,47.44
2018-01-13T04:38:27.017Z,47.25
2018-01-13T04:39:35.901Z,47.34
2018-01-13T04:40:44.835Z,47.16
2018-01-13T04:41:53.715Z,46.99
2018-01-13T04:43:02.885Z,46.9
2018-01-13T04:44:11.761Z,47.09
2018-01-13T04:45:20.642Z,47.28
2018-01-13T04:46:29.624Z,47.16
2018-01-13T04:47:38.789Z,47.16
2018-01-13T04:48:47.953Z,47.06
2018-01-13T04:49:56.836Z,47.16
2018-01-13T04:51:06.013Z,46.88
2018-01-13T04:52:14.989Z,46.69
2018-01-13T04:53:23.874Z,46.88
2018-01-13T04:54:32.754Z,46.8
2018-01-13T04:55:41.636Z,46.61
2018-01-13T04:56:50.517Z,47.18
2018-01-13T04:57:59.500Z,47.18
2018-01-13T04:59:08.666Z,47.28
2018-01-13T05:00:17.548Z,47.09
2018-01-13T05:01:26.430Z,46.9
2018-01-13T05:02:35.315Z,47.09
2018-01-13T05:03:44.597Z,47.28
2018-01-13T05:04:53.479Z,47.28
2018-01-13T05:06:02.643Z,47.18
2018-01-13T05:07:11.523Z,46.61
2018-01-13T05:08:21.039Z,47.28
2018-01-13T05:09:30.028Z,47.06
2018-01-13T05:10:38.906Z,47.28
2018-01-13T05:11:47.786Z,47.28
2018-01-13T05:12:56.667Z,47.18
2018-01-13T05:14:05.550Z,46.99
2018-01-13T05:15:14.581Z,47.28
2018-01-13T05:16:23.447Z,46.9
2018-01-13T05:17:32.315Z,47.28
2018-01-13T05:18:41.175Z,46.9
2018-01-13T05:19:50.037Z,47.09
2018-01-13T05:20:59.026Z,47.09
2018-01-13T05:22:07.865Z,46.99
2018-01-13T05:23:16.710Z,47.09
2018-01-13T05:24:25.554Z,47.28
2018-01-13T05:25:34.385Z,47.47
2018-01-13T05:26:43.634Z,47.37
2018-01-13T05:27:52.474Z,47.18
2018-01-13T05:29:01.880Z,47.09
2018-01-13T05:30:11.059Z,47.09
2018-01-13T05:31:20.168Z,47.28
2018-01-13T05:32:29.156Z,47.28
2018-01-13T05:33:37.990Z,47.47
2018-01-13T05:34:46.829Z,47.28
2018-01-13T05:35:55.938Z,47.66
2018-01-13T05:37:04.770Z,47.28
2018-01-13T05:38:14.021Z,47.56
2018-01-13T05:39:22.866Z,47.56
2018-01-13T05:40:31.711Z,47.37
2018-01-13T05:41:41.093Z,47.47
2018-01-13T05:42:49.939Z,47.47
2018-01-13T05:43:59.086Z,47.56
2018-01-13T05:45:07.921Z,47.47
2018-01-13T05:46:16.761Z,47.28
2018-01-13T05:47:25.880Z,47.37
2018-01-13T05:48:34.718Z,47.47
2018-01-13T05:49:43.863Z,47.37
2018-01-13T05:50:52.708Z,47.37
2018-01-13T05:52:01.563Z,47.37
2018-01-13T05:53:10.400Z,47.28
2018-01-13T05:54:19.244Z,47.28
2018-01-13T05:55:28.406Z,47.37
2018-01-13T05:56:37.259Z,47.28
2018-01-13T05:57:46.094Z,46.99
2018-01-13T05:58:54.925Z,47.56
2018-01-13T06:00:03.763Z,47.66
2018-01-13T06:01:12.599Z,47.47
2018-01-13T06:02:21.433Z,47.47
2018-01-13T06:03:30.268Z,47.56
2018-01-13T06:04:39.104Z,47.37
2018-01-13T06:05:47.943Z,47.28
2018-01-13T06:06:57.062Z,47.37
2018-01-13T06:08:06.167Z,47.47
2018-01-13T06:09:15.014Z,47.28
2018-01-13T06:10:24.116Z,47.56
2018-01-13T06:11:32.948Z,47.37
2018-01-13T06:12:41.785Z,47.47
2018-01-13T06:13:50.623Z,47.47
2018-01-13T06:14:59.455Z,47.47
2018-01-13T06:16:08.288Z,47.09
2018-01-13T06:17:17.127Z,47.56
2018-01-13T06:18:26.165Z,47.66
2018-01-13T06:19:34.997Z,47.66
2018-01-13T06:20:43.834Z,47.47
2018-01-13T06:21:52.939Z,47.18
2018-01-13T06:23:01.781Z,47.28
2018-01-13T06:24:10.703Z,47.18
2018-01-13T06:25:19.536Z,47.47
2018-01-13T06:26:28.368Z,47.37
2018-01-13T06:27:37.198Z,47.53
2018-01-13T06:28:46.042Z,47.28
2018-01-13T06:29:54.993Z,47.37
2018-01-13T06:31:03.825Z,47.56
2018-01-13T06:32:12.661Z,47.28
2018-01-13T06:33:21.504Z,47.47
2018-01-13T06:34:30.349Z,47.18
2018-01-13T06:35:39.293Z,47.56
2018-01-13T06:36:48.138Z,47.47
2018-01-13T06:37:56.979Z,47.18
2018-01-13T06:39:05.815Z,47.56
2018-01-13T06:40:14.653Z,47.47
2018-01-13T06:41:23.593Z,47.28
2018-01-13T06:42:32.426Z,47.28
2018-01-13T06:43:41.269Z,47.28
2018-01-13T06:44:50.162Z,47.47
2018-01-13T06:45:58.994Z,47.18
2018-01-13T06:47:07.819Z,47.28
2018-01-13T06:48:16.643Z,47.37
2018-01-13T06:49:25.469Z,47.18
2018-01-13T06:50:34.294Z,47.56
2018-01-13T06:51:43.117Z,47.37
2018-01-13T06:52:52.194Z,47.18
2018-01-13T06:54:01.020Z,47.18
2018-01-13T06:55:09.848Z,47.28
2018-01-13T06:56:18.673Z,47.18
2018-01-13T06:57:27.771Z,47.28
2018-01-13T06:58:36.745Z,47.28
2018-01-13T06:59:45.569Z,47.18
2018-01-13T07:00:54.394Z,47.18
2018-01-13T07:02:03.219Z,47.18
2018-01-13T07:03:12.043Z,47.18
2018-01-13T07:04:20.917Z,47.18
2018-01-13T07:05:29.744Z,47.37
2018-01-13T07:06:38.571Z,47.47
2018-01-13T07:07:47.395Z,47.18
2018-01-13T07:08:56.220Z,47.28
2018-01-13T07:10:05.197Z,47.37
2018-01-13T07:11:14.022Z,47.28
2018-01-13T07:12:23.119Z,47.28
2018-01-13T07:13:32.228Z,47.47
2018-01-13T07:14:41.323Z,47.47
2018-01-13T07:15:50.247Z,47.37
2018-01-13T07:16:59.074Z,47.75
2018-01-13T07:18:08.172Z,47.85
2018-01-13T07:19:16.996Z,47.75
2018-01-13T07:20:25.819Z,47.85
2018-01-13T07:21:34.695Z,47.56
2018-01-13T07:22:43.524Z,47.66
2018-01-13T07:23:52.350Z,47.66
2018-01-13T07:25:01.174Z,47.85
2018-01-13T07:26:10.001Z,47.75
2018-01-13T07:27:18.976Z,47.75
2018-01-13T07:28:27.801Z,47.56
2018-01-13T07:29:36.625Z,47.85
2018-01-13T07:30:45.450Z,47.56
2018-01-13T07:31:54.277Z,47.94
2018-01-13T07:33:03.153Z,48.13
2018-01-13T07:34:11.982Z,47.85
2018-01-13T07:35:21.081Z,47.94
2018-01-13T07:36:29.906Z,48.13
2018-01-13T07:37:38.730Z,47.94
2018-01-13T07:38:47.805Z,47.85
2018-01-13T07:39:56.628Z,47.94
2018-01-13T07:41:05.455Z,47.94
2018-01-13T07:42:14.280Z,48.03
2018-01-13T07:43:23.107Z,47.94
2018-01-13T07:44:32.030Z,47.85
2018-01-13T07:45:40.855Z,47.66
2018-01-13T07:46:49.681Z,47.94
2018-01-13T07:47:58.505Z,47.75
2018-01-13T07:49:07.329Z,47.56
2018-01-13T07:50:16.255Z,47.94
2018-01-13T07:51:25.355Z,48.03
2018-01-13T07:52:34.178Z,48.41
2018-01-13T07:53:42.999Z,48.6
2018-01-13T07:54:51.824Z,48.13
2018-01-13T07:56:00.650Z,48.22
2018-01-13T07:57:09.515Z,48.32
2018-01-13T07:58:18.338Z,48.6
2018-01-13T07:59:27.437Z,48.03
2018-01-13T08:00:36.263Z,48.32
2018-01-13T08:01:45.089Z,49.08
2018-01-13T08:02:53.914Z,49.55
2018-01-13T08:04:03.015Z,49.65
2018-01-13T08:05:11.841Z,50.12
2018-01-13T08:06:20.666Z,50.12
2018-01-13T08:07:29.494Z,49.93
2018-01-13T08:08:38.318Z,50.31
2018-01-13T08:09:47.460Z,50.21
2018-01-13T08:10:56.284Z,50.69
2018-01-13T08:12:05.108Z,50.97
2018-01-13T08:13:13.935Z,52.01
2018-01-13T08:14:22.759Z,51.64
2018-01-13T08:15:31.587Z,51.92
2018-01-13T08:16:40.697Z,51.82
2018-01-13T08:17:49.524Z,51.35
2018-01-13T08:18:58.349Z,50.88
2018-01-13T08:20:07.174Z,51.16
2018-01-13T08:21:15.999Z,50.59
2018-01-13T08:22:24.824Z,50.88
2018-01-13T08:23:33.650Z,50.88
2018-01-13T08:24:42.474Z,50.69
2018-01-13T08:25:51.299Z,50.88
2018-01-13T08:27:00.227Z,50.97
2018-01-13T08:28:09.103Z,50.78
2018-01-13T08:29:17.877Z,50.97
2018-01-13T08:30:26.702Z,51.16
2018-01-13T08:31:35.528Z,50.59
2018-01-13T08:32:44.403Z,50.78
2018-01-13T08:33:53.231Z,50.78
2018-01-13T08:35:02.089Z,50.69
2018-01-13T08:36:10.913Z,50.88
2018-01-13T08:37:19.738Z,51.16
2018-01-13T08:38:28.564Z,50.78
2018-01-13T08:39:37.390Z,50.78
2018-01-13T08:40:46.219Z,51.16
2018-01-13T08:41:55.044Z,50.59
2018-01-13T08:43:03.872Z,50.49
2018-01-13T08:44:12.696Z,50.88
2018-01-13T08:45:21.522Z,50.49
2018-01-13T08:46:30.365Z,50.4
2018-01-13T08:47:39.189Z,50.4
2018-01-13T08:48:48.015Z,50.49
2018-01-13T08:49:56.842Z,50.31
2018-01-13T08:51:05.668Z,50.21
2018-01-13T08:52:14.845Z,50.31
2018-01-13T08:53:23.588Z,50.49
2018-01-13T08:54:32.414Z,50.88
2018-01-13T08:55:41.240Z,50.4
2018-01-13T08:56:50.065Z,50.69
2018-01-13T08:57:58.892Z,50.31
2018-01-13T08:59:07.718Z,50.31
2018-01-13T09:00:16.551Z,50.59
2018-01-13T09:01:25.367Z,50.49
2018-01-13T09:02:34.193Z,50.49
2018-01-13T09:03:43.540Z,50.49
2018-01-13T09:04:52.370Z,50.78
2018-01-13T09:06:01.192Z,50.78
2018-01-13T09:07:10.016Z,50.88
2018-01-13T09:08:18.843Z,50.78
2018-01-13T09:09:27.820Z,50.49
2018-01-13T09:10:36.650Z,50.31
2018-01-13T09:11:45.480Z,50.78
2018-01-13T09:12:54.309Z,50.78
2018-01-13T09:14:03.150Z,50.78
2018-01-13T09:15:12.031Z,50.78
2018-01-13T09:16:20.856Z,50.88
2018-01-13T09:17:29.681Z,50.78
2018-01-13T09:18:38.508Z,51.16
2018-01-13T09:19:47.337Z,51.16
2018-01-13T09:20:56.485Z,50.69
2018-01-13T09:22:05.312Z,51.16
2018-01-13T09:23:14.136Z,51.16
2018-01-13T09:24:22.962Z,51.35
2018-01-13T09:25:31.787Z,51.35
2018-01-13T09:26:40.713Z,51.45
2018-01-13T09:27:49.538Z,51.16
2018-01-13T09:28:58.365Z,51.54
2018-01-13T09:30:07.192Z,51.54
2018-01-13T09:31:16.017Z,51.64
2018-01-13T09:32:24.839Z,51.45
2018-01-13T09:33:33.667Z,51.35
2018-01-13T09:34:42.494Z,51.26
2018-01-13T09:35:51.319Z,51.45
2018-01-13T09:37:00.149Z,50.88
2018-01-13T09:38:09.115Z,51.26
2018-01-13T09:39:17.941Z,51.45
2018-01-13T09:40:26.853Z,51.26
2018-01-13T09:41:35.677Z,51.54
2018-01-13T09:42:44.506Z,51.45
2018-01-13T09:43:53.530Z,51.26
2018-01-13T09:45:02.363Z,50.88
2018-01-13T09:46:11.185Z,50.59
2018-01-13T09:47:20.013Z,50.69
2018-01-13T09:48:28.839Z,50.88
2018-01-13T09:49:37.968Z,50.69
2018-01-13T09:50:46.800Z,50.88
2018-01-13T09:51:55.628Z,50.59
2018-01-13T09:53:04.453Z,51.16
2018-01-13T09:54:13.280Z,51.07
2018-01-13T09:55:22.406Z,50.97
2018-01-13T09:56:31.232Z,50.97
2018-01-13T09:57:40.059Z,51.26
2018-01-13T09:58:48.884Z,50.78
2018-01-13T09:59:57.712Z,50.88
2018-01-13T10:01:06.536Z,51.16
2018-01-13T10:02:15.637Z,50.97
2018-01-13T10:03:24.463Z,50.78
2018-01-13T10:04:33.290Z,50.97
2018-01-13T10:05:42.115Z,50.97
2018-01-13T10:06:51.261Z,51.07
2018-01-13T10:08:00.086Z,51.07
2018-01-13T10:09:08.915Z,51.16
2018-01-13T10:10:17.742Z,51.64
2018-01-13T10:11:26.849Z,51.35
2018-01-13T10:12:35.824Z,51.35
2018-01-13T10:13:44.651Z,51.45
2018-01-13T10:14:53.478Z,51.54
2018-01-13T10:16:02.306Z,51.35
2018-01-13T10:17:11.409Z,51.16
2018-01-13T10:18:20.288Z,51.26
2018-01-13T10:19:29.115Z,51.35
2018-01-13T10:20:37.947Z,51.35
2018-01-13T10:21:46.773Z,51.64
2018-01-13T10:22:55.599Z,51.16
2018-01-13T10:24:04.621Z,51.64
2018-01-13T10:25:13.448Z,51.35
2018-01-13T10:26:22.277Z,51.35
2018-01-13T10:27:31.102Z,52.11
2018-01-13T10:28:39.930Z,51.54
2018-01-13T10:29:48.811Z,51.82
2018-01-13T10:30:57.633Z,51.54
2018-01-13T10:32:06.460Z,51.64
2018-01-13T10:33:15.282Z,51.35
2018-01-13T10:34:24.109Z,51.16
2018-01-13T10:35:33.035Z,51.26
2018-01-13T10:36:42.158Z,51.35
2018-01-13T10:37:50.983Z,51.26
2018-01-13T10:38:59.809Z,51.45
2018-01-13T10:40:08.645Z,51.45
2018-01-13T10:41:17.469Z,51.26
2018-01-13T10:42:26.296Z,51.26
2018-01-13T10:43:35.122Z,51.54
2018-01-13T10:44:43.949Z,51.54
2018-01-13T10:45:53.055Z,51.73
2018-01-13T10:47:01.881Z,51.16
2018-01-13T10:48:10.705Z,51.35
2018-01-13T10:49:19.533Z,51.35
2018-01-13T10:50:28.634Z,51.64
2018-01-13T10:51:37.455Z,51.45
2018-01-13T10:52:46.282Z,51.45
2018-01-13T10:53:55.388Z,51.45
2018-01-13T10:55:04.215Z,51.45
2018-01-13T10:56:13.313Z,51.26
2018-01-13T10:57:22.139Z,51.35
2018-01-13T10:58:30.965Z,51.45
2018-01-13T10:59:39.820Z,51.26
2018-01-13T11:00:48.659Z,51.45
2018-01-13T11:01:57.484Z,51.35
2018-01-13T11:03:06.586Z,51.45
2018-01-13T11:04:15.414Z,51.64
2018-01-13T11:05:24.240Z,51.64
2018-01-13T11:06:33.124Z,51.64
2018-01-13T11:07:41.944Z,51.73
2018-01-13T11:08:50.769Z,51.82
2018-01-13T11:09:59.596Z,51.92
2018-01-13T11:11:08.420Z,51.82
2018-01-13T11:12:17.347Z,51.73
2018-01-13T11:13:26.173Z,51.54
2018-01-13T11:14:35.007Z,51.54
2018-01-13T11:15:43.834Z,51.54
2018-01-13T11:16:52.659Z,51.54
2018-01-13T11:18:01.587Z,51.64
2018-01-13T11:19:10.414Z,52.01
2018-01-13T11:20:19.238Z,51.73
2018-01-13T11:21:28.063Z,52.68
2018-01-13T11:22:36.891Z,52.68
2018-01-13T11:23:46.197Z,52.77
2018-01-13T11:24:55.024Z,52.29
2018-01-13T11:26:03.855Z,52.68
2018-01-13T11:27:12.945Z,52.96
2018-01-13T11:28:21.771Z,53.15
2018-01-13T11:29:30.870Z,53.63
2018-01-13T11:30:39.696Z,54.28
2018-01-13T11:31:48.801Z,54.86
2018-01-13T11:32:57.629Z,54.86
2018-01-13T11:34:06.455Z,55.62
2018-01-13T11:35:15.557Z,55.62
2018-01-13T11:36:24.383Z,56.56
2018-01-13T11:37:33.208Z,57.51
2018-01-13T11:38:42.048Z,57.13
2018-01-13T11:39:51.080Z,58.07
2018-01-13T11:40:59.924Z,57.6
2018-01-13T11:42:08.750Z,57.98
2018-01-13T11:43:17.576Z,57.89
2018-01-13T11:44:26.404Z,57.98
2018-01-13T11:45:35.232Z,58.17
2018-01-13T11:46:44.210Z,58.17
2018-01-13T11:47:53.036Z,57.89
2018-01-13T11:49:01.863Z,57.7
2018-01-13T11:50:10.691Z,58.26
2018-01-13T11:51:19.518Z,57.79
2018-01-13T11:52:28.343Z,58.45
2018-01-13T11:53:37.442Z,58.84
2018-01-13T11:54:46.268Z,58.84
2018-01-13T11:55:55.367Z,58.84
2018-01-13T11:57:04.194Z,59.5
2018-01-13T11:58:13.021Z,59.03
2018-01-13T11:59:21.848Z,59.88
2018-01-13T12:00:30.673Z,59.78
2018-01-13T12:01:39.775Z,59.41
2018-01-13T12:02:48.603Z,58.84
2018-01-13T12:03:57.528Z,59.5
2018-01-13T12:05:06.355Z,59.59
2018-01-13T12:06:15.179Z,59.03
2018-01-13T12:07:24.007Z,59.03
2018-01-13T12:08:32.834Z,58.84
2018-01-13T12:09:41.764Z,58.65
2018-01-13T12:10:50.592Z,59.12
2018-01-13T12:11:59.417Z,59.03
2018-01-13T12:13:08.539Z,59.59
2018-01-13T12:14:17.363Z,58.93
2018-01-13T12:15:26.593Z,58.84
2018-01-13T12:16:35.419Z,58.74
2018-01-13T12:17:44.244Z,58.84
2018-01-13T12:18:53.070Z,58.74
2018-01-13T12:20:01.897Z,58.74
2018-01-13T12:21:10.824Z,59.12
2018-01-13T12:22:19.651Z,59.78
2018-01-13T12:23:28.474Z,59.78
2018-01-13T12:24:37.353Z,59.88
2018-01-13T12:25:46.128Z,60.06
2018-01-13T12:26:54.956Z,60.44
2018-01-13T12:28:03.784Z,60.54
2018-01-13T12:29:12.611Z,61.02
2018-01-13T12:30:21.445Z,60.54
2018-01-13T12:31:30.828Z,60.35
2018-01-13T12:32:39.761Z,59.97
2018-01-13T12:33:48.589Z,60.64
2018-01-13T12:34:57.440Z,60.06
2018-01-13T12:36:06.265Z,61.21
2018-01-13T12:37:15.095Z,61.21
2018-01-13T12:38:24.320Z,61.02
2018-01-13T12:39:33.147Z,61.4
2018-01-13T12:40:41.974Z,60.92
2018-01-13T12:41:50.798Z,61.11
2018-01-13T12:42:59.663Z,61.11
2018-01-13T12:44:08.553Z,60.92
2018-01-13T12:45:17.379Z,60.92
2018-01-13T12:46:26.203Z,60.92
2018-01-13T12:47:35.029Z,60.54
2018-01-13T12:48:43.856Z,61.21
2018-01-13T12:49:52.782Z,61.02
2018-01-13T12:51:01.608Z,61.21
2018-01-13T12:52:10.433Z,61.11
2018-01-13T12:53:19.259Z,62.53
2018-01-13T12:54:28.086Z,62.24
2018-01-13T12:55:37.160Z,62.34
2018-01-13T12:56:45.988Z,62.15
2018-01-13T12:57:54.813Z,61.68
2018-01-13T12:59:03.640Z,61.96
2018-01-13T13:00:12.467Z,62.05
2018-01-13T13:01:21.342Z,61.87
2018-01-13T13:02:30.169Z,61.77
2018-01-13T13:03:38.996Z,62.15
2018-01-13T13:04:47.821Z,62.53
2018-01-13T13:05:56.648Z,62.34
2018-01-13T13:07:05.578Z,62.15
2018-01-13T13:08:14.407Z,62.43
2018-01-13T13:09:23.239Z,62.43
2018-01-13T13:10:32.067Z,61.68
2018-01-13T13:11:40.899Z,62.05
2018-01-13T13:12:49.829Z,62.34
2018-01-13T13:13:58.664Z,62.43
2018-01-13T13:15:07.499Z,63.29
2018-01-13T13:16:16.337Z,63.48
2018-01-13T13:17:25.161Z,63.29
2018-01-13T13:18:33.988Z,62.91
2018-01-13T13:19:42.812Z,62.82
2018-01-13T13:20:51.639Z,62.34
2018-01-13T13:22:00.464Z,63.1
2018-01-13T13:23:09.292Z,62.53
2018-01-13T13:24:18.219Z,62.34
2018-01-13T13:25:27.049Z,63.1
2018-01-13T13:26:35.878Z,62.91
2018-01-13T13:27:44.702Z,62.91
2018-01-13T13:28:53.532Z,62.43
2018-01-13T13:30:02.654Z,63.1
2018-01-13T13:31:11.480Z,63.29
2018-01-13T13:32:20.309Z,63.2
2018-01-13T13:33:29.135Z,63.48
2018-01-13T13:34:37.962Z,62.91
2018-01-13T13:35:46.838Z,63.1
2018-01-13T13:36:55.667Z,63.29
2018-01-13T13:38:04.492Z,63.01
2018-01-13T13:39:13.596Z,63.39
2018-01-13T13:40:22.421Z,63.67
2018-01-13T13:41:31.348Z,64.23
2018-01-13T13:42:40.177Z,63.85
2018-01-13T13:43:49.005Z,64.52
2018-01-13T13:44:57.832Z,64.42
2018-01-13T13:46:06.657Z,64.23
2018-01-13T13:47:15.638Z,64.81
2018-01-13T13:48:24.466Z,64.52
2018-01-13T13:49:33.297Z,64.61
2018-01-13T13:50:42.127Z,64.9
2018-01-13T13:51:50.956Z,65
2018-01-13T13:53:00.038Z,65.28
2018-01-13T13:54:09.138Z,65.47
2018-01-13T13:55:17.964Z,64.81
2018-01-13T13:56:26.791Z,64.52
2018-01-13T13:57:35.617Z,64.42
2018-01-13T13:58:44.592Z,64.04
2018-01-13T13:59:53.420Z,64.23
2018-01-13T14:01:31.465Z,63.67
2018-01-13T14:02:40.290Z,63.95
2018-01-13T14:03:49.114Z,63.76
2018-01-13T14:04:57.945Z,63.76
2018-01-13T14:06:06.777Z,64.14
2018-01-13T14:07:15.601Z,64.52
2018-01-13T14:08:24.428Z,64.61
2018-01-13T14:09:33.680Z,64.23
2018-01-13T14:10:42.505Z,63.67
2018-01-13T14:11:51.406Z,63.95
2018-01-13T14:13:00.189Z,63.67
2018-01-13T14:14:09.141Z,63.85
2018-01-13T14:15:18.167Z,63.76
2018-01-13T14:16:27.267Z,63.76
2018-01-13T14:17:36.095Z,63.85
2018-01-13T14:18:44.923Z,63.95
2018-01-13T14:19:53.748Z,63.85
2018-01-13T14:21:02.710Z,63.2
2018-01-13T14:22:11.566Z,63.39
2018-01-13T14:23:20.418Z,63.76
2018-01-13T14:24:29.245Z,63.76
2018-01-13T14:25:38.071Z,64.23
2018-01-13T14:26:46.898Z,63.67
2018-01-13T14:27:55.780Z,63.76
2018-01-13T14:29:04.877Z,64.23
2018-01-13T14:30:13.705Z,64.52
2018-01-13T14:31:22.529Z,64.33
2018-01-13T14:32:31.554Z,64.3
2018-01-13T14:33:40.379Z,64.3
2018-01-13T14:34:49.207Z,63.92
2018-01-13T14:35:58.243Z,64.2
2018-01-13T14:37:07.072Z,64.11
2018-01-13T14:38:16.468Z,63.92
2018-01-13T14:39:25.294Z,63.67
2018-01-13T14:40:34.392Z,63.76
2018-01-13T14:41:43.283Z,63.85
2018-01-13T14:42:52.106Z,64.23
2018-01-13T14:44:00.932Z,63.95
2018-01-13T14:45:09.762Z,63.95
2018-01-13T14:46:18.588Z,64.04
2018-01-13T14:47:27.410Z,63.85
2018-01-13T14:48:36.235Z,64.14